createdAt,value
2022-08-03T00:01:46.690Z,2.78
2022-08-03T00:04:14.691Z,2.08
2022-08-03T00:06:42.690Z,2.17
2022-08-03T00:09:11.214Z,2.40
2022-08-03T00:11:39.797Z,2.30
2022-08-03T00:14:08.494Z,2.42
2022-08-03T00:16:37.067Z,2.40
2022-08-03T00:19:06.448Z,2.20
2022-08-03T00:21:34.574Z,2.42
2022-08-03T00:24:02.692Z,2.47
2022-08-03T00:26:31.661Z,2.38
2022-08-03T00:28:59.654Z,2.40
2022-08-03T00:31:44.941Z,2.10
2022-08-03T00:34:17.017Z,1.98
2022-08-03T00:36:57.970Z,2.25
2022-08-03T00:39:25.932Z,2.45
2022-08-03T00:41:53.890Z,2.10
2022-08-03T00:44:22.882Z,2.33
2022-08-03T00:46:50.845Z,2.35
2022-08-03T00:49:20.280Z,2.10
2022-08-03T00:51:48.962Z,2.45
2022-08-03T00:54:17.303Z,2.42
2022-08-03T00:56:59.595Z,2.38
2022-08-03T00:59:29.150Z,2.63
2022-08-03T01:01:58.524Z,2.30
2022-08-03T01:04:28.925Z,2.72
2022-08-03T01:07:10.943Z,2.47
2022-08-03T01:09:47.333Z,2.42
2022-08-03T01:12:23.598Z,2.85
2022-08-03T01:14:56.875Z,2.25
2022-08-03T01:17:31.146Z,2.25
2022-08-03T01:20:06.601Z,2.50
2022-08-03T01:23:06.168Z,2.45
2022-08-03T01:25:45.183Z,2.50
2022-08-03T01:28:28.155Z,2.50
2022-08-03T01:31:02.280Z,3.47
2022-08-03T01:33:37.124Z,2.80
2022-08-03T01:36:08.574Z,3.40
2022-08-03T01:38:43.022Z,2.53
2022-08-03T01:41:14.812Z,2.72
2022-08-03T01:44:26.485Z,2.70
2022-08-03T01:46:40.337Z,2.60
2022-08-03T01:49:17.301Z,2.85
2022-08-03T01:52:00.842Z,2.60
2022-08-03T01:54:44.105Z,2.70
2022-08-03T01:57:13.101Z,2.50
2022-08-03T01:59:43.021Z,3.08
2022-08-03T02:02:33.062Z,2.72
2022-08-03T02:05:04.279Z,2.95
2022-08-03T02:07:35.888Z,3.25
2022-08-03T02:10:06.224Z,3.03
2022-08-03T02:12:35.777Z,3.53
2022-08-03T02:15:04.879Z,3.25
2022-08-03T02:17:38.560Z,2.90
2022-08-03T02:20:09.611Z,3.47
2022-08-03T02:22:41.368Z,2.80
2022-08-03T02:25:10.985Z,3.15
2022-08-03T02:27:44.166Z,2.63
2022-08-03T02:30:14.380Z,3.17
2022-08-03T02:32:49.659Z,3.45
2022-08-03T02:35:20.396Z,3.38
2022-08-03T02:37:52.835Z,2.97
2022-08-03T02:40:23.944Z,3.13
2022-08-03T02:42:57.250Z,3.00
2022-08-03T02:45:27.506Z,3.28
2022-08-03T02:48:02.095Z,3.92
2022-08-03T02:50:31.946Z,3.70
2022-08-03T02:53:00.842Z,3.03
2022-08-03T02:55:30.002Z,3.10
2022-08-03T02:58:01.614Z,3.53
2022-08-03T03:00:31.722Z,3.53
2022-08-03T03:03:03.678Z,3.20
2022-08-03T03:05:52.666Z,3.17
2022-08-03T03:08:25.744Z,2.88
2022-08-03T03:10:55.853Z,3.10
2022-08-03T03:13:24.551Z,3.47
2022-08-03T03:15:53.976Z,3.60
2022-08-03T03:18:25.102Z,3.95
2022-08-03T03:20:55.040Z,3.67
2022-08-03T03:23:25.471Z,3.40
2022-08-03T03:25:55.914Z,3.25
2022-08-03T03:28:24.417Z,3.47
2022-08-03T03:30:53.606Z,3.10
2022-08-03T03:33:23.828Z,3.47
2022-08-03T03:35:52.787Z,3.70
2022-08-03T03:38:21.708Z,3.33
2022-08-03T03:40:50.218Z,3.92
2022-08-03T03:43:18.891Z,3.60
2022-08-03T03:45:48.982Z,3.45
2022-08-03T03:48:17.366Z,3.53
2022-08-03T03:50:47.397Z,3.88
2022-08-03T03:53:15.982Z,4.00
2022-08-03T03:56:01.601Z,3.95
2022-08-03T03:58:32.787Z,3.42
2022-08-03T04:01:01.261Z,4.00
2022-08-03T04:03:29.327Z,3.92
2022-08-03T04:06:16.442Z,4.13
2022-08-03T04:09:16.192Z,4.45
2022-08-03T04:11:52.076Z,3.88
2022-08-03T04:14:23.751Z,4.03
2022-08-03T04:16:56.427Z,4.55
2022-08-03T04:19:31.795Z,4.10
2022-08-03T04:22:05.312Z,4.85
2022-08-03T04:24:36.271Z,4.35
2022-08-03T04:27:08.770Z,4.50
2022-08-03T04:29:48.251Z,4.93
2022-08-03T04:32:18.906Z,5.20
2022-08-03T04:34:47.793Z,5.55
2022-08-03T04:37:25.692Z,4.40
2022-08-03T04:39:57.662Z,5.07
2022-08-03T04:42:26.964Z,5.85
2022-08-03T04:45:01.144Z,5.20
2022-08-03T04:47:31.074Z,5.03
2022-08-03T04:49:59.212Z,5.07
2022-08-03T04:52:28.621Z,5.63
2022-08-03T04:54:56.767Z,5.47
2022-08-03T04:57:25.050Z,5.90
2022-08-03T05:00:01.489Z,5.78
2022-08-03T05:02:32.190Z,5.72
2022-08-03T05:05:00.641Z,6.15
2022-08-03T05:07:35.661Z,6.70
2022-08-03T05:10:04.522Z,5.85
2022-08-03T05:12:43.754Z,5.97
2022-08-03T05:15:12.253Z,6.75
2022-08-03T05:17:40.314Z,6.05
2022-08-03T05:20:09.428Z,5.88
2022-08-03T05:22:38.878Z,5.72
2022-08-03T05:25:07.320Z,5.72
2022-08-03T05:27:35.383Z,5.60
2022-08-03T05:30:29.652Z,5.90
2022-08-03T05:32:57.004Z,6.40
2022-08-03T05:36:00.872Z,5.78
2022-08-03T05:38:20.883Z,6.25
2022-08-03T05:40:57.156Z,6.35
2022-08-03T05:43:26.107Z,5.68
2022-08-03T05:46:01.765Z,6.28
2022-08-03T05:48:40.825Z,5.90
2022-08-03T05:51:11.397Z,6.22
2022-08-03T05:53:41.816Z,6.47
2022-08-03T05:56:15.373Z,5.78
2022-08-03T05:58:45.508Z,5.45
2022-08-03T06:01:13.670Z,5.28
2022-08-03T06:03:41.708Z,5.30
2022-08-03T06:06:10.060Z,5.20
2022-08-03T06:08:38.449Z,5.55
2022-08-03T06:11:08.452Z,5.28
2022-08-03T06:13:36.993Z,5.53
2022-08-03T06:16:05.361Z,5.47
2022-08-03T06:18:33.365Z,5.43
2022-08-03T06:21:14.352Z,4.70
2022-08-03T06:23:54.076Z,4.45
2022-08-03T06:26:26.208Z,4.70
2022-08-03T06:28:54.919Z,4.53
2022-08-03T06:31:32.227Z,4.60
2022-08-03T06:34:33.070Z,4.50
2022-08-03T06:36:50.998Z,4.30
2022-08-03T06:39:23.350Z,4.70
2022-08-03T06:41:54.189Z,3.70
2022-08-03T06:44:22.224Z,3.95
2022-08-03T06:46:51.146Z,3.70
2022-08-03T06:49:19.833Z,3.60
2022-08-03T06:52:05.826Z,3.40
2022-08-03T06:54:37.564Z,3.88
2022-08-03T06:57:08.320Z,3.30
2022-08-03T07:00:09.050Z,3.35
2022-08-03T07:02:24.646Z,3.38
2022-08-03T07:04:56.568Z,3.22
2022-08-03T07:07:24.705Z,3.10
2022-08-03T07:09:56.667Z,3.67
2022-08-03T07:12:28.529Z,3.08
2022-08-03T07:15:02.876Z,3.35
2022-08-03T07:17:33.435Z,3.90
2022-08-03T07:20:04.634Z,2.90
2022-08-03T07:22:32.703Z,3.00
2022-08-03T07:25:00.984Z,3.65
2022-08-03T07:27:31.389Z,3.42
2022-08-03T07:30:00.190Z,2.67
2022-08-03T07:32:31.472Z,3.40
2022-08-03T07:35:01.247Z,3.13
2022-08-03T07:37:30.759Z,3.08
2022-08-03T07:39:59.508Z,3.53
2022-08-03T07:42:27.685Z,3.40
2022-08-03T07:44:58.375Z,2.88
2022-08-03T07:47:35.116Z,3.00
2022-08-03T07:50:05.677Z,3.38
2022-08-03T07:52:50.811Z,2.85
2022-08-03T07:55:19.936Z,2.72
2022-08-03T07:57:48.148Z,3.25
2022-08-03T08:00:20.168Z,3.25
2022-08-03T08:02:48.354Z,2.75
2022-08-03T08:05:16.476Z,2.78
2022-08-03T08:07:44.757Z,3.30
2022-08-03T08:10:20.480Z,2.65
2022-08-03T08:12:48.948Z,3.45
2022-08-03T08:15:18.704Z,3.17
2022-08-03T08:17:48.805Z,3.38
2022-08-03T08:20:27.070Z,2.92
2022-08-03T08:22:58.295Z,3.00
2022-08-03T08:25:30.423Z,3.03
2022-08-03T08:28:30.572Z,3.13
2022-08-03T08:30:51.546Z,2.70
2022-08-03T08:33:23.085Z,3.10
2022-08-03T08:35:53.476Z,2.90
2022-08-03T08:38:21.628Z,2.88
2022-08-03T08:40:50.814Z,3.35
2022-08-03T08:43:19.102Z,3.13
2022-08-03T08:45:50.587Z,3.00
2022-08-03T08:48:24.460Z,2.50
2022-08-03T08:50:54.928Z,2.95
2022-08-03T08:53:27.221Z,2.90
2022-08-03T08:56:00.717Z,2.53
2022-08-03T08:58:31.711Z,3.13
2022-08-03T09:01:00.345Z,3.13
2022-08-03T09:03:31.054Z,2.72
2022-08-03T09:06:02.416Z,2.83
2022-08-03T09:08:31.318Z,2.88
2022-08-03T09:10:59.856Z,2.80
2022-08-03T09:13:29.264Z,2.92
2022-08-03T09:16:22.903Z,3.00
2022-08-03T09:18:56.150Z,2.72
2022-08-03T12:23:37.575Z,2.53
2022-08-03T12:32:19.069Z,2.40
2022-08-03T12:35:17.465Z,2.22
2022-08-03T12:38:00.267Z,2.28
2022-08-03T12:41:02.966Z,2.35
2022-08-03T12:53:22.145Z,2.35
2022-08-03T12:56:32.101Z,2.20
2022-08-03T12:59:53.347Z,2.35
2022-08-03T13:05:45.823Z,2.28
2022-08-03T13:08:38.507Z,2.45
2022-08-03T13:11:57.478Z,2.70
2022-08-03T13:14:53.333Z,2.38
2022-08-03T13:17:50.692Z,2.72
2022-08-03T13:20:19.336Z,2.65
2022-08-03T13:22:48.874Z,3.08
2022-08-03T13:25:18.897Z,3.55
2022-08-03T13:28:03.389Z,3.03
2022-08-03T13:30:38.990Z,3.20
2022-08-03T13:33:08.001Z,2.97
2022-08-03T13:35:44.419Z,3.30
2022-08-03T13:38:35.039Z,3.00
2022-08-03T13:41:05.227Z,2.67
2022-08-03T13:43:33.775Z,2.70
2022-08-03T13:46:01.811Z,2.38
2022-08-03T13:48:36.813Z,2.35
2022-08-03T13:51:22.140Z,3.03
2022-08-03T13:53:51.332Z,2.65
2022-08-03T13:56:21.221Z,3.15
2022-08-03T13:58:50.334Z,2.92
2022-08-03T14:01:34.324Z,2.47
2022-08-03T14:04:15.863Z,2.67
2022-08-03T14:06:50.311Z,2.60
2022-08-03T14:09:27.226Z,2.78
2022-08-03T14:12:07.205Z,2.78
2022-08-03T14:14:38.133Z,3.03
2022-08-03T14:17:19.269Z,2.53
2022-08-03T14:19:55.724Z,3.00
2022-08-03T14:22:27.919Z,2.65
2022-08-03T14:25:14.343Z,3.05
2022-08-03T14:27:51.571Z,2.50
2022-08-03T14:30:26.237Z,2.70
2022-08-03T14:33:00.845Z,2.67
2022-08-03T14:35:29.928Z,2.30
2022-08-03T14:38:17.454Z,2.40
2022-08-03T14:40:54.640Z,2.90
2022-08-03T14:43:25.697Z,2.50
2022-08-03T14:46:03.111Z,2.65
2022-08-03T14:50:32.311Z,2.95
2022-08-03T14:51:30.526Z,2.50
2022-08-03T14:57:04.150Z,2.53
2022-08-03T15:00:06.708Z,2.20
2022-08-03T15:03:04.557Z,2.60
2022-08-03T15:05:34.820Z,2.88
2022-08-03T15:08:09.188Z,2.53
2022-08-03T15:10:44.196Z,2.17
2022-08-03T15:13:17.260Z,2.70
2022-08-03T15:15:54.859Z,3.17
2022-08-03T15:18:24.732Z,2.65
2022-08-03T15:21:06.973Z,3.13
2022-08-03T15:23:50.522Z,2.50
2022-08-03T15:26:32.914Z,2.17
2022-08-03T15:29:04.060Z,2.60
2022-08-03T15:31:41.162Z,2.22
2022-08-03T15:34:15.874Z,2.67
2022-08-03T15:36:45.227Z,3.50
2022-08-03T15:39:14.992Z,3.03
2022-08-03T15:41:43.339Z,2.40
2022-08-03T15:44:11.385Z,2.47
2022-08-03T15:46:40.983Z,3.10
2022-08-03T15:49:09.039Z,2.53
2022-08-03T15:51:38.222Z,2.13
2022-08-03T15:54:09.469Z,2.65
2022-08-03T15:56:37.717Z,2.40
2022-08-03T15:59:13.500Z,2.55
2022-08-03T16:01:43.815Z,3.00
2022-08-03T16:04:12.624Z,2.70
2022-08-03T16:06:40.820Z,3.58
2022-08-03T16:09:23.386Z,3.50
2022-08-03T16:11:58.390Z,2.63
2022-08-03T16:14:34.805Z,2.70
2022-08-03T16:17:07.374Z,2.35
2022-08-03T16:19:35.666Z,2.72
2022-08-03T16:22:03.803Z,2.60
2022-08-03T16:24:32.079Z,2.65
2022-08-03T16:27:00.472Z,2.88
2022-08-03T16:29:29.514Z,2.72
2022-08-03T16:31:57.513Z,2.80
2022-08-03T16:34:27.135Z,2.55
2022-08-03T16:36:55.791Z,2.42
2022-08-03T16:39:23.911Z,2.42
2022-08-03T16:42:00.427Z,2.30
2022-08-03T16:44:30.835Z,2.65
2022-08-03T16:46:59.346Z,2.78
2022-08-03T16:49:52.956Z,2.90
2022-08-03T16:52:18.049Z,2.45
2022-08-03T16:54:50.565Z,2.42
2022-08-03T16:57:56.537Z,2.83
2022-08-03T17:00:11.078Z,3.03
2022-08-03T17:02:48.281Z,3.30
2022-08-03T17:05:18.586Z,2.83
2022-08-03T17:07:50.639Z,3.13
2022-08-03T17:10:27.212Z,3.08
2022-08-03T17:12:55.902Z,3.08
2022-08-03T17:15:57.256Z,3.13
2022-08-03T17:18:18.603Z,3.22
2022-08-03T17:20:53.407Z,2.90
2022-08-03T17:23:35.883Z,2.95
2022-08-03T17:26:20.810Z,3.35
2022-08-03T17:28:57.447Z,2.92
2022-08-03T17:31:32.033Z,3.05
2022-08-03T17:34:04.546Z,2.95
2022-08-03T17:37:02.812Z,3.00
2022-08-03T17:39:48.475Z,3.00
2022-08-03T17:42:30.829Z,3.08
2022-08-03T17:45:19.032Z,3.13
2022-08-03T17:47:57.802Z,2.78
2022-08-03T17:53:31.982Z,3.10
2022-08-03T17:56:38.518Z,3.20
2022-08-03T17:59:50.729Z,3.83
2022-08-03T18:02:47.531Z,4.20
2022-08-03T18:05:21.801Z,4.47
2022-08-03T18:08:00.793Z,4.18
2022-08-03T18:10:49.684Z,4.70
2022-08-03T18:13:24.332Z,4.93
2022-08-03T18:15:57.176Z,5.25
2022-08-03T18:18:36.435Z,4.82
2022-08-03T18:21:09.201Z,5.30
2022-08-03T18:23:50.348Z,6.65
2022-08-03T18:26:28.883Z,5.93
2022-08-03T18:28:58.699Z,5.53
2022-08-03T18:31:59.409Z,5.05
2022-08-03T18:34:33.255Z,6.05
2022-08-03T18:37:07.747Z,6.35
2022-08-03T18:39:49.687Z,7.45
2022-08-03T18:42:20.455Z,6.25
2022-08-03T18:44:56.366Z,6.18
2022-08-03T18:47:50.547Z,7.35
2022-08-03T18:50:25.957Z,7.93
2022-08-03T18:53:16.689Z,6.68
2022-08-03T18:58:52.222Z,6.47
2022-08-03T19:04:27.630Z,6.55
2022-08-03T19:07:11.178Z,6.50
2022-08-03T19:09:47.986Z,7.68
2022-08-03T19:12:28.083Z,6.47
2022-08-03T19:15:04.979Z,7.40
2022-08-03T19:17:36.092Z,6.30
2022-08-03T19:20:08.995Z,5.75
2022-08-03T19:22:39.737Z,6.22
2022-08-03T19:25:14.043Z,6.25
2022-08-03T19:27:46.175Z,6.53
2022-08-03T19:30:32.844Z,6.20
2022-08-03T19:33:02.074Z,6.47
2022-08-03T19:35:49.722Z,6.00
2022-08-03T19:38:27.502Z,6.32
2022-08-03T19:41:00.057Z,5.82
2022-08-03T19:43:49.457Z,6.60
2022-08-03T19:46:30.146Z,6.70
2022-08-03T19:49:04.253Z,7.13
2022-08-03T19:51:58.981Z,6.65
2022-08-03T19:54:29.842Z,6.63
2022-08-03T19:57:02.486Z,5.72
2022-08-03T19:59:42.019Z,6.93
2022-08-03T20:02:26.064Z,6.65
2022-08-03T20:04:57.346Z,5.90
2022-08-03T20:07:26.052Z,6.13
2022-08-03T20:09:56.559Z,6.03
2022-08-03T20:12:27.412Z,5.53
2022-08-03T20:14:56.792Z,5.90
2022-08-03T20:17:56.290Z,6.07
2022-08-03T20:20:15.473Z,4.82
2022-08-03T20:22:48.168Z,5.43
2022-08-03T20:25:20.814Z,5.45
2022-08-03T20:28:07.719Z,6.13
2022-08-03T20:30:44.564Z,6.72
2022-08-03T20:33:18.369Z,6.88
2022-08-03T20:35:49.517Z,6.85
2022-08-03T20:38:19.024Z,6.07
2022-08-03T20:40:48.313Z,8.15
2022-08-03T20:43:16.494Z,6.28
2022-08-03T20:46:00.648Z,5.63
2022-08-03T20:48:38.458Z,5.18
2022-08-03T20:51:20.214Z,7.63
2022-08-03T20:54:00.177Z,7.10
2022-08-03T20:56:33.900Z,5.70
2022-08-03T20:59:03.892Z,6.97
2022-08-03T21:01:36.184Z,6.45
2022-08-03T21:04:09.562Z,8.00
2022-08-03T21:06:42.918Z,6.30
2022-08-03T21:09:19.226Z,6.70
2022-08-03T21:11:51.447Z,6.07
2022-08-03T21:13:04.654Z,3.20
2022-08-03T21:13:10.906Z,6.90
2022-08-03T21:13:11.100Z,7.30
2022-08-03T21:14:21.357Z,7.07
2022-08-03T21:16:52.540Z,7.30
2022-08-03T21:19:23.265Z,7.88
2022-08-03T21:21:53.380Z,7.13
2022-08-03T21:24:25.733Z,7.47
2022-08-03T21:26:55.587Z,8.02
2022-08-03T21:29:24.725Z,7.75
2022-08-03T21:31:53.173Z,7.05
2022-08-03T21:34:23.222Z,7.32
2022-08-03T21:36:51.253Z,7.72
2022-08-03T21:39:19.460Z,7.45
2022-08-03T21:41:47.632Z,7.03
2022-08-03T21:44:18.315Z,7.15
2022-08-03T21:46:57.990Z,8.07
2022-08-03T21:50:07.749Z,7.53
2022-08-03T21:52:21.287Z,6.53
2022-08-03T21:54:51.116Z,6.55
2022-08-03T21:57:21.091Z,5.43
2022-08-03T21:59:54.655Z,5.22
2022-08-03T22:02:27.642Z,6.50
2022-08-03T22:04:57.946Z,7.45
2022-08-03T22:07:26.795Z,6.30
2022-08-03T22:09:56.054Z,5.40
2022-08-03T22:12:25.699Z,6.07
2022-08-03T22:15:00.907Z,5.43
2022-08-03T22:17:55.810Z,7.13
2022-08-03T22:20:22.384Z,5.85
2022-08-03T22:22:55.842Z,6.88
2022-08-03T22:25:28.692Z,5.20
2022-08-03T22:27:57.866Z,4.60
2022-08-03T22:30:26.360Z,5.15
2022-08-03T22:32:56.101Z,5.97
2022-08-03T22:35:27.557Z,5.45
2022-08-03T22:37:58.088Z,6.72
2022-08-03T22:40:27.747Z,6.38
2022-08-03T22:42:55.891Z,6.75
2022-08-03T22:46:06.227Z,5.38
2022-08-03T22:48:12.955Z,6.43
2022-08-03T22:50:45.337Z,6.25
2022-08-03T22:53:17.813Z,5.97
2022-08-03T22:55:46.475Z,4.80
2022-08-03T22:58:16.557Z,6.53
2022-08-03T23:00:49.849Z,6.75
2022-08-03T23:03:24.494Z,7.43
2022-08-03T23:06:01.185Z,7.57
2022-08-03T23:08:34.501Z,8.18
2022-08-03T23:11:08.570Z,6.55
2022-08-03T23:13:40.470Z,8.82
2022-08-03T23:16:10.572Z,9.00
2022-08-03T23:18:40.641Z,8.45
2022-08-03T23:21:11.014Z,9.57
2022-08-03T23:23:44.180Z,10.18
2022-08-03T23:26:14.368Z,8.48
2022-08-03T23:28:46.322Z,8.27
2022-08-03T23:31:15.721Z,9.23
2022-08-03T23:33:45.355Z,9.57
2022-08-03T23:36:30.342Z,9.55
2022-08-03T23:39:00.164Z,9.38
2022-08-03T23:41:29.708Z,9.43
2022-08-03T23:43:59.994Z,9.15
2022-08-03T23:46:30.670Z,8.95
2022-08-03T23:48:59.761Z,9.70
2022-08-03T23:51:40.162Z,9.88
2022-08-03T23:54:17.987Z,9.57
2022-08-03T23:56:53.901Z,11.13
2022-08-03T23:59:27.755Z,9.77
